createdAt,value
2023-05-05T00:00:01.585Z,42.98
2023-05-05T00:01:01.581Z,43.74
2023-05-05T00:02:01.667Z,43.30
2023-05-05T00:03:01.639Z,45.94
2023-05-05T00:04:01.645Z,47.27
2023-05-05T00:05:01.555Z,47.66
2023-05-05T00:06:01.543Z,48.36
2023-05-05T00:07:01.522Z,46.63
2023-05-05T00:08:01.529Z,43.71
2023-05-05T00:09:01.511Z,45.76
2023-05-05T00:10:01.541Z,46.57
2023-05-05T00:11:01.496Z,46.76
2023-05-05T00:12:01.535Z,48.27
2023-05-05T00:13:01.542Z,48.92
2023-05-05T00:14:01.467Z,49.16
2023-05-05T00:15:01.503Z,43.55
2023-05-05T00:16:01.458Z,42.78
2023-05-05T00:17:01.501Z,44.36
2023-05-05T00:18:01.507Z,44.32
2023-05-05T00:19:01.439Z,40.68
2023-05-05T00:20:01.515Z,41.84
2023-05-05T00:21:01.482Z,42.05
2023-05-05T00:22:01.430Z,40.49
2023-05-05T00:23:01.698Z,38.58
2023-05-05T00:24:01.412Z,39.96
2023-05-05T00:25:01.421Z,44.15
2023-05-05T00:26:01.400Z,42.04
2023-05-05T00:27:01.417Z,42.53
2023-05-05T00:28:01.405Z,44.73
2023-05-05T00:29:01.373Z,41.10
2023-05-05T00:30:01.380Z,41.49
2023-05-05T00:31:01.413Z,42.35
2023-05-05T00:32:01.362Z,42.69
2023-05-05T00:33:01.407Z,44.11
2023-05-05T00:34:01.374Z,44.05
2023-05-05T00:35:01.341Z,42.94
2023-05-05T00:36:01.345Z,44.32
2023-05-05T00:37:01.326Z,42.91
2023-05-05T00:38:01.306Z,41.30
2023-05-05T00:39:01.329Z,39.72
2023-05-05T00:40:01.333Z,46.33
2023-05-05T00:41:01.317Z,46.61
2023-05-05T00:42:01.306Z,42.50
2023-05-05T00:43:01.324Z,44.88
2023-05-05T00:44:01.277Z,43.49
2023-05-05T00:45:01.300Z,41.37
2023-05-05T00:46:01.290Z,41.67
2023-05-05T00:47:01.290Z,46.42
2023-05-05T00:48:01.455Z,40.67
2023-05-05T00:49:01.276Z,38.98
2023-05-05T00:50:01.259Z,43.18
2023-05-05T00:51:01.268Z,41.61
2023-05-05T00:52:01.269Z,42.44
2023-05-05T00:53:01.235Z,43.44
2023-05-05T00:54:01.213Z,41.82
2023-05-05T00:55:01.220Z,44.40
2023-05-05T00:56:01.187Z,46.03
2023-05-05T00:57:01.196Z,43.49
2023-05-05T00:58:01.258Z,44.71
2023-05-05T00:59:01.175Z,44.31
2023-05-05T01:00:01.218Z,46.41
2023-05-05T01:01:01.160Z,43.77
2023-05-05T01:02:01.195Z,43.13
2023-05-05T01:03:01.301Z,43.94
2023-05-05T01:04:01.220Z,40.84
2023-05-05T01:05:01.165Z,44.91
2023-05-05T01:06:01.162Z,43.80
2023-05-05T01:07:01.167Z,45.51
2023-05-05T01:08:01.143Z,45.95
2023-05-05T01:09:01.143Z,47.87
2023-05-05T01:10:15.669Z,46.49
2023-05-05T01:11:02.107Z,46.70
2023-05-05T01:12:01.080Z,47.11
2023-05-05T01:13:01.144Z,44.88
2023-05-05T01:14:01.070Z,48.29
2023-05-05T01:15:01.096Z,48.77
2023-05-05T01:16:01.091Z,47.92
2023-05-05T01:17:01.080Z,46.25
2023-05-05T01:18:01.089Z,48.49
2023-05-05T01:19:01.073Z,45.19
2023-05-05T01:20:01.044Z,46.51
2023-05-05T01:21:01.019Z,48.15
2023-05-05T01:22:01.054Z,44.88
2023-05-05T01:23:01.025Z,40.99
2023-05-05T01:24:01.035Z,43.96
2023-05-05T01:25:01.020Z,43.17
2023-05-05T01:26:01.020Z,46.03
2023-05-05T01:27:00.996Z,46.75
2023-05-05T01:28:01.018Z,41.15
2023-05-05T01:29:00.980Z,45.21
2023-05-05T01:30:01.017Z,41.69
2023-05-05T01:31:00.997Z,43.65
2023-05-05T01:32:01.024Z,44.24
2023-05-05T01:33:00.978Z,43.45
2023-05-05T01:34:00.931Z,46.89
2023-05-05T01:35:00.950Z,45.37
2023-05-05T01:36:01.004Z,46.47
2023-05-05T01:37:00.957Z,49.24
2023-05-05T01:38:00.919Z,45.59
2023-05-05T01:39:00.931Z,48.63
2023-05-05T01:40:00.950Z,45.96
2023-05-05T01:41:00.990Z,43.78
2023-05-05T01:42:01.037Z,44.89
2023-05-05T01:43:01.016Z,41.69
2023-05-05T01:44:01.047Z,45.04
2023-05-05T01:45:01.052Z,40.17
2023-05-05T01:46:01.104Z,42.18
2023-05-05T01:47:01.084Z,40.70
2023-05-05T01:48:01.268Z,41.79
2023-05-05T01:49:01.110Z,42.75
2023-05-05T01:50:01.142Z,42.64
2023-05-05T01:51:01.125Z,43.95
2023-05-05T01:52:01.127Z,44.92
2023-05-05T01:53:01.158Z,44.35
2023-05-05T01:54:01.165Z,43.25
2023-05-05T01:55:01.175Z,41.93
2023-05-05T01:56:01.205Z,45.06
2023-05-05T01:57:01.232Z,42.24
2023-05-05T01:58:01.249Z,44.47
2023-05-05T01:59:01.229Z,42.36
2023-05-05T02:00:01.247Z,45.75
2023-05-05T02:01:01.247Z,46.57
2023-05-05T02:02:01.310Z,45.49
2023-05-05T02:03:01.426Z,41.20
2023-05-05T02:04:01.273Z,47.03
2023-05-05T02:05:01.284Z,43.03
2023-05-05T02:06:01.296Z,37.00
2023-05-05T02:07:01.314Z,40.80
2023-05-05T02:08:01.358Z,42.10
2023-05-05T02:09:01.390Z,40.70
2023-05-05T02:10:01.378Z,41.03
2023-05-05T02:11:01.375Z,40.05
2023-05-05T02:12:01.414Z,45.59
2023-05-05T02:13:01.518Z,41.20
2023-05-05T02:14:01.494Z,41.60
2023-05-05T02:15:01.435Z,45.09
2023-05-05T02:16:01.467Z,41.33
2023-05-05T02:17:01.473Z,39.60
2023-05-05T02:18:01.526Z,38.82
2023-05-05T02:19:01.489Z,39.16
2023-05-05T02:20:01.498Z,41.28
2023-05-05T02:21:01.538Z,41.44
2023-05-05T02:22:01.557Z,43.13
2023-05-05T02:23:01.740Z,40.10
2023-05-05T02:24:01.638Z,39.49
2023-05-05T02:25:01.637Z,41.78
2023-05-05T02:26:01.620Z,40.12
2023-05-05T02:27:01.633Z,39.30
2023-05-05T02:28:01.651Z,44.12
2023-05-05T02:29:01.665Z,45.62
2023-05-05T02:30:01.683Z,44.56
2023-05-05T02:31:01.742Z,44.00
2023-05-05T02:32:01.733Z,46.25
2023-05-05T02:33:01.766Z,45.39
2023-05-05T02:34:01.717Z,46.59
2023-05-05T02:35:01.770Z,45.83
2023-05-05T02:36:01.788Z,47.24
2023-05-05T02:37:01.787Z,44.26
2023-05-05T02:38:01.891Z,48.55
2023-05-05T02:39:01.844Z,45.19
2023-05-05T02:40:01.847Z,48.60
2023-05-05T02:41:01.842Z,44.07
2023-05-05T02:42:01.844Z,46.37
2023-05-05T02:43:01.955Z,43.67
2023-05-05T02:44:01.935Z,48.05
2023-05-05T02:45:01.947Z,43.38
2023-05-05T02:46:01.981Z,49.27
2023-05-05T02:47:01.948Z,45.97
2023-05-05T02:48:02.047Z,44.06
2023-05-05T02:49:02.001Z,48.78
2023-05-05T02:50:02.018Z,45.92
2023-05-05T02:51:02.042Z,48.29
2023-05-05T02:52:02.048Z,46.52
2023-05-05T02:53:02.065Z,47.60
2023-05-05T02:54:02.097Z,46.31
2023-05-05T02:55:02.133Z,45.58
2023-05-05T02:56:02.125Z,41.56
2023-05-05T02:57:02.165Z,43.50
2023-05-05T02:58:02.199Z,44.95
2023-05-05T02:59:02.202Z,44.06
2023-05-05T03:00:02.213Z,41.16
2023-05-05T03:01:02.222Z,43.29
2023-05-05T03:02:02.308Z,46.63
2023-05-05T03:03:02.429Z,43.11
2023-05-05T03:04:02.326Z,44.00
2023-05-05T03:05:02.321Z,42.15
2023-05-05T03:06:02.361Z,45.21
2023-05-05T03:07:02.336Z,46.01
2023-05-05T03:08:02.392Z,41.66
2023-05-05T03:09:02.458Z,45.74
2023-05-05T03:10:02.388Z,43.79
2023-05-05T03:11:02.413Z,42.31
2023-05-05T03:12:02.458Z,39.41
2023-05-05T03:13:02.489Z,43.21
2023-05-05T03:14:02.546Z,41.05
2023-05-05T03:15:02.501Z,43.16
2023-05-05T03:16:02.546Z,42.82
2023-05-05T03:17:02.515Z,40.74
2023-05-05T03:18:02.578Z,44.45
2023-05-05T03:19:02.516Z,44.24
2023-05-05T03:20:03.903Z,43.32
2023-05-05T03:21:02.622Z,42.84
2023-05-05T03:22:02.569Z,44.48
2023-05-05T03:23:02.595Z,38.25
2023-05-05T03:24:02.597Z,40.39
2023-05-05T03:25:02.610Z,39.42
2023-05-05T03:26:02.663Z,43.44
2023-05-05T03:27:02.683Z,40.89
2023-05-05T03:28:02.729Z,41.50
2023-05-05T03:29:02.734Z,36.90
2023-05-05T03:30:02.815Z,39.38
2023-05-05T03:31:02.811Z,39.18
2023-05-05T03:32:02.900Z,38.35
2023-05-05T03:33:02.895Z,39.13
2023-05-05T03:34:02.779Z,44.31
2023-05-05T03:35:02.830Z,45.41
2023-05-05T03:36:02.842Z,42.89
2023-05-05T03:37:02.892Z,45.63
2023-05-05T03:38:02.903Z,41.57
2023-05-05T03:39:02.934Z,44.39
2023-05-05T03:40:02.933Z,46.41
2023-05-05T03:41:02.973Z,42.42
2023-05-05T03:42:02.976Z,46.50
2023-05-05T03:43:03.003Z,48.46
2023-05-05T03:44:02.968Z,46.46
2023-05-05T03:45:03.007Z,48.28
2023-05-05T03:46:03.030Z,47.30
2023-05-05T03:47:03.034Z,42.31
2023-05-05T03:48:03.085Z,44.99
2023-05-05T03:49:03.078Z,48.24
2023-05-05T03:50:03.152Z,42.36
2023-05-05T03:51:03.127Z,43.60
2023-05-05T03:52:03.125Z,48.23
2023-05-05T03:53:03.269Z,47.52
2023-05-05T03:54:03.179Z,47.10
2023-05-05T03:55:03.197Z,48.44
2023-05-05T03:56:03.192Z,45.24
2023-05-05T03:57:03.238Z,48.25
2023-05-05T03:58:03.258Z,45.72
2023-05-05T03:59:03.255Z,41.53
2023-05-05T04:00:03.307Z,48.60
2023-05-05T04:01:03.297Z,44.18
2023-05-05T04:02:03.377Z,46.23
2023-05-05T04:03:03.408Z,44.84
2023-05-05T04:04:03.421Z,42.13
2023-05-05T04:05:03.391Z,46.44
2023-05-05T04:06:03.414Z,47.32
2023-05-05T04:07:03.415Z,45.56
2023-05-05T04:08:03.457Z,43.85
2023-05-05T04:09:03.510Z,45.72
2023-05-05T04:10:03.487Z,45.39
2023-05-05T04:11:03.471Z,44.80
2023-05-05T04:12:03.505Z,43.51
2023-05-05T04:13:03.548Z,47.09
2023-05-05T04:14:03.510Z,47.17
2023-05-05T04:15:03.583Z,47.52
2023-05-05T04:16:03.648Z,44.57
2023-05-05T04:17:03.591Z,47.14
2023-05-05T04:18:03.661Z,48.01
2023-05-05T04:19:03.630Z,42.31
2023-05-05T04:20:03.630Z,44.81
2023-05-05T04:21:03.693Z,43.89
2023-05-05T04:22:03.723Z,45.20
2023-05-05T04:23:03.764Z,44.84
2023-05-05T04:24:03.739Z,45.67
2023-05-05T04:25:03.747Z,43.74
2023-05-05T04:26:03.752Z,47.18
2023-05-05T04:27:03.767Z,47.43
2023-05-05T04:28:03.829Z,46.57
2023-05-05T04:29:03.788Z,45.51
2023-05-05T04:30:03.843Z,44.34
2023-05-05T04:31:03.897Z,42.64
2023-05-05T04:32:03.876Z,44.10
2023-05-05T04:33:03.941Z,47.27
2023-05-05T04:34:03.915Z,46.40
2023-05-05T04:35:03.941Z,49.69
2023-05-05T04:36:03.979Z,48.85
2023-05-05T04:37:03.964Z,49.00
2023-05-05T04:38:03.990Z,48.82
2023-05-05T04:39:04.023Z,45.53
2023-05-05T04:40:04.000Z,48.60
2023-05-05T04:41:04.047Z,49.12
2023-05-05T04:42:04.066Z,51.18
2023-05-05T04:43:04.114Z,45.86
2023-05-05T04:44:04.108Z,48.69
2023-05-05T04:45:04.100Z,46.99
2023-05-05T04:46:04.203Z,49.56
2023-05-05T04:47:04.167Z,48.81
2023-05-05T04:48:04.193Z,49.24
2023-05-05T04:49:04.209Z,43.76
2023-05-05T04:50:04.247Z,40.92
2023-05-05T04:51:04.267Z,37.21
2023-05-05T04:52:04.303Z,34.50
2023-05-05T04:53:04.340Z,33.33
2023-05-05T04:54:04.351Z,38.87
2023-05-05T04:55:04.377Z,87.00
2023-05-05T04:56:04.404Z,144.30
2023-05-05T04:57:04.443Z,162.69
2023-05-05T04:58:04.435Z,163.06
2023-05-05T04:59:04.478Z,158.47
2023-05-05T05:00:04.531Z,147.05
2023-05-05T05:01:04.517Z,127.20
2023-05-05T05:02:04.672Z,110.50
2023-05-05T05:03:04.971Z,100.45
2023-05-05T05:04:04.727Z,92.33
2023-05-05T05:05:04.696Z,93.29
2023-05-05T05:06:04.715Z,89.79
2023-05-05T05:07:04.755Z,89.33
2023-05-05T05:08:04.786Z,86.48
2023-05-05T05:09:04.840Z,85.06
2023-05-05T05:10:04.862Z,86.56
2023-05-05T05:11:04.908Z,83.93
2023-05-05T05:12:04.946Z,86.67
2023-05-05T05:13:05.040Z,83.38
2023-05-05T05:14:05.036Z,85.82
2023-05-05T05:15:05.084Z,82.23
2023-05-05T05:16:05.127Z,84.53
2023-05-05T05:17:05.167Z,77.71
2023-05-05T05:18:05.248Z,78.68
2023-05-05T05:19:05.236Z,78.01
2023-05-05T05:20:05.317Z,78.78
2023-05-05T05:21:05.310Z,76.73
2023-05-05T05:22:05.357Z,79.99
2023-05-05T05:23:05.394Z,80.26
2023-05-05T05:24:05.457Z,79.33
2023-05-05T05:25:05.492Z,81.07
2023-05-05T05:26:05.520Z,79.33
2023-05-05T05:27:06.415Z,77.39
2023-05-05T05:28:10.685Z,78.13
2023-05-05T05:29:06.659Z,78.32
2023-05-05T05:30:05.750Z,77.67
2023-05-05T05:31:05.591Z,78.52
2023-05-05T05:32:05.597Z,76.52
2023-05-05T05:33:05.621Z,78.59
2023-05-05T05:34:05.591Z,76.75
2023-05-05T05:35:05.617Z,76.10
2023-05-05T05:36:05.638Z,78.07
2023-05-05T05:37:05.576Z,80.19
2023-05-05T05:38:05.525Z,80.76
2023-05-05T05:39:05.809Z,85.78
2023-05-05T05:40:05.660Z,82.90
2023-05-05T05:41:05.803Z,82.95
2023-05-05T05:42:05.881Z,81.85
2023-05-05T05:43:05.780Z,81.00
2023-05-05T05:44:05.809Z,78.12
2023-05-05T05:45:05.832Z,81.86
2023-05-05T05:46:08.910Z,82.90
2023-05-05T05:47:05.853Z,89.49
2023-05-05T05:48:05.911Z,96.17
2023-05-05T05:49:05.847Z,93.49
2023-05-05T05:50:06.062Z,99.77
2023-05-05T05:51:05.867Z,106.31
2023-05-05T05:52:05.847Z,117.50
2023-05-05T05:53:05.822Z,124.36
2023-05-05T05:54:05.854Z,128.24
2023-05-05T05:55:05.829Z,133.97
2023-05-05T05:56:05.799Z,137.34
2023-05-05T05:57:05.800Z,146.43
2023-05-05T05:58:05.801Z,150.94
2023-05-05T05:59:05.804Z,168.74
2023-05-05T06:00:05.990Z,169.26
2023-05-05T06:01:05.787Z,173.13
2023-05-05T06:02:05.823Z,148.06
2023-05-05T06:03:05.798Z,172.85
2023-05-05T06:04:05.908Z,185.84
2023-05-05T06:05:05.746Z,195.59
2023-05-05T06:06:05.878Z,205.22
2023-05-05T06:07:05.723Z,206.18
2023-05-05T06:08:05.736Z,214.90
2023-05-05T06:09:05.822Z,225.26
2023-05-05T06:10:22.913Z,230.23
2023-05-05T06:11:06.715Z,230.75
2023-05-05T06:12:05.708Z,233.02
2023-05-05T06:13:05.717Z,239.09
2023-05-05T06:14:05.847Z,250.54
2023-05-05T06:15:05.642Z,265.68
2023-05-05T06:16:05.665Z,250.00
2023-05-05T06:17:05.678Z,246.15
2023-05-05T06:18:05.665Z,249.97
2023-05-05T06:19:05.637Z,247.86
2023-05-05T06:20:05.776Z,250.00
2023-05-05T06:21:05.635Z,250.00
2023-05-05T06:22:05.626Z,249.17
2023-05-05T06:23:05.596Z,251.40
2023-05-05T06:24:05.847Z,250.00
2023-05-05T06:25:05.621Z,248.35
2023-05-05T06:26:05.575Z,247.34
2023-05-05T06:27:05.592Z,250.00
2023-05-05T06:28:05.679Z,250.00
2023-05-05T06:29:05.840Z,249.93
2023-05-05T06:30:05.840Z,248.51
2023-05-05T06:31:05.723Z,250.00
2023-05-05T06:32:05.739Z,248.97
2023-05-05T06:33:05.773Z,248.87
2023-05-05T06:34:05.827Z,249.76
2023-05-05T06:35:05.819Z,248.95
2023-05-05T06:36:05.896Z,249.37
2023-05-05T06:37:05.897Z,250.00
2023-05-05T06:38:05.986Z,250.00
2023-05-05T06:39:06.333Z,249.69
2023-05-05T06:40:06.131Z,249.54
2023-05-05T06:41:06.034Z,248.88
2023-05-05T06:42:06.121Z,249.59
2023-05-05T06:43:06.149Z,249.71
2023-05-05T06:44:06.155Z,250.00
2023-05-05T06:45:06.273Z,248.46
2023-05-05T06:46:06.243Z,249.41
2023-05-05T06:47:06.301Z,248.95
2023-05-05T06:48:06.322Z,247.29
2023-05-05T06:49:06.323Z,249.55
2023-05-05T06:50:06.645Z,250.00
2023-05-05T06:51:06.344Z,248.45
2023-05-05T06:52:06.354Z,249.37
2023-05-05T06:53:06.394Z,248.06
2023-05-05T06:54:06.422Z,248.87
2023-05-05T06:55:06.442Z,248.10
2023-05-05T06:56:06.436Z,248.16
2023-05-05T06:57:06.501Z,248.23
2023-05-05T06:58:06.535Z,247.05
2023-05-05T06:59:06.841Z,247.49
2023-05-05T07:00:06.839Z,248.75
2023-05-05T07:01:06.781Z,246.98
2023-05-05T07:02:06.678Z,247.08
2023-05-05T07:03:06.842Z,247.07
2023-05-05T07:04:07.119Z,246.83
2023-05-05T07:05:06.819Z,245.29
2023-05-05T07:06:06.886Z,245.66
2023-05-05T07:07:06.896Z,244.60
2023-05-05T07:08:06.916Z,243.75
2023-05-05T07:09:06.986Z,242.87
2023-05-05T07:10:07.180Z,239.93
2023-05-05T07:11:07.000Z,240.16
2023-05-05T07:12:07.003Z,240.15
2023-05-05T07:13:07.075Z,238.30
2023-05-05T07:14:07.063Z,237.05
2023-05-05T07:15:19.182Z,236.42
2023-05-05T07:16:08.068Z,236.48
2023-05-05T07:17:07.152Z,236.39
2023-05-05T07:18:07.103Z,233.25
2023-05-05T07:19:07.068Z,231.88
2023-05-05T07:20:07.132Z,230.66
2023-05-05T07:21:06.999Z,229.61
2023-05-05T07:22:07.015Z,228.30
2023-05-05T07:23:06.976Z,226.48
2023-05-05T07:24:07.026Z,226.37
2023-05-05T07:25:06.960Z,224.46
2023-05-05T07:26:06.954Z,223.50
2023-05-05T07:27:06.970Z,222.16
2023-05-05T07:28:06.983Z,222.08
2023-05-05T07:29:06.957Z,222.52
2023-05-05T07:30:11.134Z,220.84
2023-05-05T07:31:07.955Z,220.99
2023-05-05T07:32:06.942Z,221.09
2023-05-05T07:33:07.000Z,220.82
2023-05-05T07:34:06.916Z,218.33
2023-05-05T07:35:06.889Z,217.50
2023-05-05T07:36:06.909Z,217.23
2023-05-05T07:37:06.917Z,215.74
2023-05-05T07:38:08.665Z,215.46
2023-05-05T07:39:06.977Z,214.75
2023-05-05T07:40:07.203Z,212.83
2023-05-05T07:41:07.027Z,211.71
2023-05-05T07:42:07.073Z,211.09
2023-05-05T07:43:07.085Z,210.54
2023-05-05T07:44:07.105Z,211.76
2023-05-05T07:45:07.124Z,208.27
2023-05-05T07:46:07.183Z,207.71
2023-05-05T07:47:07.195Z,206.07
2023-05-05T07:48:07.221Z,207.94
2023-05-05T07:49:07.305Z,206.58
2023-05-05T07:50:07.410Z,203.31
2023-05-05T07:51:07.282Z,202.78
2023-05-05T07:52:07.274Z,204.61
2023-05-05T07:53:14.542Z,193.74
2023-05-05T07:54:08.322Z,193.89
2023-05-05T07:55:07.304Z,194.14
2023-05-05T07:56:07.304Z,192.05
2023-05-05T07:57:07.301Z,168.86
2023-05-05T07:58:07.278Z,159.97
2023-05-05T07:59:07.263Z,172.92
2023-05-05T08:00:07.447Z,177.06
2023-05-05T08:01:07.248Z,181.37
2023-05-05T08:02:07.287Z,183.01
2023-05-05T08:03:09.737Z,183.87
2023-05-05T08:04:07.463Z,184.07
2023-05-05T08:05:07.614Z,184.92
2023-05-05T08:06:07.234Z,187.54
2023-05-05T08:07:07.226Z,191.17
2023-05-05T08:08:07.205Z,197.32
2023-05-05T08:09:07.229Z,199.95
2023-05-05T08:10:07.212Z,202.48
2023-05-05T08:11:07.211Z,204.71
2023-05-05T08:12:07.219Z,205.21
2023-05-05T08:13:07.201Z,209.98
2023-05-05T08:14:07.357Z,213.37
2023-05-05T08:15:07.402Z,215.44
2023-05-05T08:16:07.208Z,215.99
2023-05-05T08:17:07.193Z,221.85
2023-05-05T08:18:07.242Z,226.17
2023-05-05T08:19:17.600Z,225.47
2023-05-05T08:20:08.130Z,225.65
2023-05-05T08:21:07.218Z,226.39
2023-05-05T08:22:07.122Z,227.65
2023-05-05T08:23:07.110Z,231.06
2023-05-05T08:24:07.410Z,237.67
2023-05-05T08:25:07.229Z,238.85
2023-05-05T08:26:07.103Z,241.19
2023-05-05T08:27:07.129Z,241.80
2023-05-05T08:28:07.065Z,244.35
2023-05-05T08:29:07.389Z,247.54
2023-05-05T08:30:07.071Z,244.38
2023-05-05T08:31:07.121Z,249.36
2023-05-05T08:32:07.073Z,250.04
2023-05-05T08:33:07.048Z,239.31
2023-05-05T08:34:07.411Z,219.03
2023-05-05T08:35:07.573Z,185.58
2023-05-05T08:36:07.020Z,192.96
2023-05-05T08:37:07.085Z,195.73
2023-05-05T08:38:07.034Z,190.00
2023-05-05T08:39:08.024Z,186.42
2023-05-05T08:40:07.010Z,179.74
2023-05-05T08:41:07.008Z,161.34
2023-05-05T08:42:07.181Z,153.13
2023-05-05T08:43:06.997Z,156.32
2023-05-05T08:44:07.012Z,163.33
2023-05-05T08:45:07.169Z,166.29
2023-05-05T08:46:06.962Z,168.62
2023-05-05T08:47:06.996Z,174.50
2023-05-05T08:48:06.991Z,200.80
2023-05-05T08:49:06.969Z,199.04
2023-05-05T08:50:06.918Z,192.38
2023-05-05T08:51:06.985Z,193.65
2023-05-05T08:52:06.919Z,195.16
2023-05-05T08:53:06.921Z,195.45
2023-05-05T08:54:07.394Z,193.97
2023-05-05T08:55:07.072Z,191.96
2023-05-05T08:56:06.915Z,193.43
2023-05-05T08:57:06.919Z,193.99
2023-05-05T08:58:06.917Z,196.87
2023-05-05T08:59:06.940Z,195.55
2023-05-05T09:00:06.936Z,195.46
2023-05-05T09:01:07.031Z,185.25
2023-05-05T09:02:07.009Z,172.16
2023-05-05T09:03:07.329Z,165.63
2023-05-05T09:04:07.038Z,160.74
2023-05-05T09:05:07.270Z,154.79
2023-05-05T09:06:07.047Z,148.46
2023-05-05T09:07:07.096Z,137.68
2023-05-05T09:08:07.115Z,141.55
2023-05-05T09:09:07.228Z,134.89
2023-05-05T09:10:07.141Z,134.65
2023-05-05T09:11:07.140Z,134.47
2023-05-05T09:12:07.156Z,131.29
2023-05-05T09:13:07.229Z,128.83
2023-05-05T09:14:07.228Z,126.47
2023-05-05T09:15:07.378Z,127.00
2023-05-05T09:16:07.222Z,115.36
2023-05-05T09:17:07.360Z,112.43
2023-05-05T09:18:07.296Z,110.47
2023-05-05T09:19:07.408Z,108.78
2023-05-05T09:20:07.412Z,103.72
2023-05-05T09:21:07.322Z,106.33
2023-05-05T09:22:07.339Z,104.86
2023-05-05T09:23:07.364Z,100.67
2023-05-05T09:24:08.548Z,100.02
2023-05-05T09:25:07.758Z,99.69
2023-05-05T09:26:07.423Z,96.01
2023-05-05T09:27:07.439Z,98.58
2023-05-05T09:28:07.452Z,66.58
2023-05-05T09:29:07.446Z,79.61
2023-05-05T09:30:07.899Z,80.57
2023-05-05T09:31:07.551Z,87.17
2023-05-05T09:32:07.512Z,86.47
2023-05-05T09:33:07.557Z,88.14
2023-05-05T09:34:07.515Z,87.79
2023-05-05T09:35:08.037Z,86.54
2023-05-05T09:36:07.551Z,89.33
2023-05-05T09:37:07.548Z,89.26
2023-05-05T09:38:07.554Z,90.97
2023-05-05T09:39:07.664Z,86.38
2023-05-05T09:40:07.657Z,91.06
2023-05-05T09:41:07.687Z,83.03
2023-05-05T09:42:07.808Z,91.20
2023-05-05T09:43:07.811Z,89.33
2023-05-05T09:44:07.856Z,96.40
2023-05-05T09:45:08.019Z,94.81
2023-05-05T09:46:08.046Z,95.51
2023-05-05T09:47:22.017Z,95.89
2023-05-05T09:48:08.975Z,96.17
2023-05-05T09:49:07.980Z,97.09
2023-05-05T09:50:08.628Z,99.22
2023-05-05T09:51:07.965Z,100.74
2023-05-05T09:52:07.957Z,103.22
2023-05-05T09:53:07.975Z,103.59
2023-05-05T09:54:07.954Z,102.38
2023-05-05T09:55:08.443Z,104.21
2023-05-05T09:56:07.939Z,97.72
2023-05-05T09:57:07.993Z,98.29
2023-05-05T09:58:07.928Z,101.98
2023-05-05T09:59:07.913Z,101.63
2023-05-05T10:00:08.229Z,99.90
2023-05-05T10:01:07.947Z,101.07
2023-05-05T10:02:07.886Z,108.75
2023-05-05T10:03:07.969Z,107.53
2023-05-05T10:04:07.888Z,107.22
2023-05-05T10:05:07.980Z,112.98
2023-05-05T10:06:07.922Z,112.85
2023-05-05T10:07:07.887Z,114.35
2023-05-05T10:08:07.941Z,113.55
2023-05-05T10:09:07.924Z,111.89
2023-05-05T10:10:08.821Z,114.67
2023-05-05T10:11:07.958Z,113.72
2023-05-05T10:12:08.003Z,116.25
2023-05-05T10:13:08.140Z,115.98
2023-05-05T10:14:08.041Z,117.10
2023-05-05T10:15:08.406Z,119.30
2023-05-05T10:16:08.142Z,120.09
2023-05-05T10:17:08.131Z,122.23
2023-05-05T10:18:08.690Z,121.11
2023-05-05T10:19:08.168Z,122.36
2023-05-05T10:20:08.415Z,122.97
2023-05-05T10:21:08.235Z,124.37
2023-05-05T10:22:08.331Z,125.03
2023-05-05T10:23:08.386Z,124.31
2023-05-05T10:24:08.335Z,126.43
2023-05-05T10:25:08.409Z,126.48
2023-05-05T10:26:08.441Z,127.05
2023-05-05T10:27:08.469Z,125.91
2023-05-05T10:28:08.509Z,127.19
2023-05-05T10:29:08.623Z,127.67
2023-05-05T10:30:09.117Z,127.90
2023-05-05T10:31:20.450Z,128.45
2023-05-05T10:32:33.500Z,128.65
2023-05-05T10:34:08.769Z,128.88
2023-05-05T10:35:08.943Z,129.46
2023-05-05T10:36:08.582Z,130.00
2023-05-05T10:37:08.556Z,130.25
2023-05-05T10:38:08.573Z,131.18
2023-05-05T10:39:08.538Z,130.53
2023-05-05T10:40:09.097Z,133.26
2023-05-05T10:41:08.512Z,132.00
2023-05-05T10:42:08.539Z,129.31
2023-05-05T10:43:08.509Z,132.83
2023-05-05T10:44:08.513Z,131.18
2023-05-05T10:45:09.066Z,131.30
2023-05-05T10:46:08.579Z,129.75
2023-05-05T10:47:08.619Z,133.26
2023-05-05T10:48:08.672Z,130.85
2023-05-05T10:49:10.057Z,132.53
2023-05-05T10:50:09.194Z,133.18
2023-05-05T10:51:08.686Z,131.94
2023-05-05T10:52:08.688Z,129.57
2023-05-05T10:53:08.710Z,132.97
2023-05-05T10:54:08.715Z,129.28
2023-05-05T10:55:08.927Z,132.18
2023-05-05T10:56:08.655Z,130.67
2023-05-05T10:57:08.659Z,131.96
2023-05-05T10:58:08.629Z,131.59
2023-05-05T10:59:08.641Z,131.52
2023-05-05T11:00:09.151Z,130.64
2023-05-05T11:01:08.681Z,129.45
2023-05-05T11:02:08.606Z,132.37
2023-05-05T11:03:08.712Z,132.68
2023-05-05T11:04:08.675Z,130.11
2023-05-05T11:05:08.949Z,130.51
2023-05-05T11:06:08.581Z,132.36
2023-05-05T11:07:10.481Z,131.84
2023-05-05T11:08:09.571Z,131.99
2023-05-05T11:09:08.578Z,132.66
2023-05-05T11:10:09.181Z,132.20
2023-05-05T11:11:08.545Z,132.24
2023-05-05T11:12:08.569Z,133.84
2023-05-05T11:13:08.634Z,132.69
2023-05-05T11:14:08.503Z,133.09
2023-05-05T11:15:08.933Z,135.52
2023-05-05T11:16:08.569Z,136.67
2023-05-05T11:17:08.605Z,136.61
2023-05-05T11:18:08.911Z,136.89
2023-05-05T11:19:08.580Z,136.88
2023-05-05T11:20:09.329Z,137.07
2023-05-05T11:21:08.682Z,137.82
2023-05-05T11:22:08.765Z,138.05
2023-05-05T11:23:08.796Z,139.88
2023-05-05T11:24:08.805Z,139.21
2023-05-05T11:25:08.953Z,139.47
2023-05-05T11:26:08.938Z,140.01
2023-05-05T11:27:08.948Z,143.63
2023-05-05T11:28:08.994Z,141.78
2023-05-05T11:29:09.038Z,140.67
2023-05-05T11:30:09.428Z,142.01
2023-05-05T11:31:09.175Z,144.17
2023-05-05T11:32:09.175Z,143.27
2023-05-05T11:33:09.281Z,144.27
2023-05-05T11:34:09.340Z,145.34
2023-05-05T11:35:09.449Z,146.02
2023-05-05T11:36:09.353Z,147.38
2023-05-05T11:37:09.401Z,147.86
2023-05-05T11:38:09.444Z,148.29
2023-05-05T11:39:09.474Z,136.75
2023-05-05T11:40:09.868Z,124.33
2023-05-05T11:41:09.554Z,104.60
2023-05-05T11:42:11.000Z,106.00
2023-05-05T11:43:09.625Z,105.99
2023-05-05T11:44:09.708Z,103.08
2023-05-05T11:45:09.722Z,102.48
2023-05-05T11:46:09.750Z,101.46
2023-05-05T11:47:09.804Z,107.05
2023-05-05T11:48:09.873Z,110.06
2023-05-05T11:49:10.023Z,111.39
2023-05-05T11:50:10.010Z,112.93
2023-05-05T11:51:09.933Z,112.99
2023-05-05T11:52:09.977Z,113.74
2023-05-05T11:53:10.014Z,117.04
2023-05-05T11:54:10.055Z,117.28
2023-05-05T11:55:10.434Z,118.49
2023-05-05T11:56:10.175Z,119.85
2023-05-05T11:57:10.206Z,121.33
2023-05-05T11:58:10.284Z,123.24
2023-05-05T11:59:10.429Z,125.91
2023-05-05T12:00:10.581Z,125.82
2023-05-05T12:01:10.411Z,128.31
2023-05-05T12:02:10.462Z,130.30
2023-05-05T12:03:10.623Z,132.45
2023-05-05T12:04:10.729Z,132.64
2023-05-05T12:05:11.047Z,134.71
2023-05-05T12:06:10.646Z,132.15
2023-05-05T12:07:10.722Z,136.24
2023-05-05T12:08:10.758Z,136.00
2023-05-05T12:09:10.797Z,136.90
2023-05-05T12:10:10.965Z,137.80
2023-05-05T12:11:10.879Z,138.51
2023-05-05T12:12:10.963Z,138.73
2023-05-05T12:13:11.010Z,141.43
2023-05-05T12:14:11.026Z,140.56
2023-05-05T12:15:11.465Z,142.73
2023-05-05T12:16:11.198Z,144.52
2023-05-05T12:17:11.130Z,144.06
2023-05-05T12:18:11.260Z,142.71
2023-05-05T12:19:11.252Z,144.35
2023-05-05T12:20:11.861Z,145.50
2023-05-05T12:21:11.399Z,145.72
2023-05-05T12:22:11.384Z,146.10
2023-05-05T12:23:11.425Z,145.71
2023-05-05T12:24:11.453Z,145.99
2023-05-05T12:25:11.491Z,148.19
2023-05-05T12:26:11.549Z,146.05
2023-05-05T12:27:11.611Z,146.40
2023-05-05T12:28:11.625Z,147.76
2023-05-05T12:29:11.681Z,146.48
2023-05-05T12:30:11.788Z,147.77
2023-05-05T12:31:11.811Z,147.20
2023-05-05T12:32:11.927Z,147.78
2023-05-05T12:33:11.872Z,147.21
2023-05-05T12:34:11.974Z,147.96
2023-05-05T12:35:12.476Z,148.28
2023-05-05T12:36:12.078Z,148.74
2023-05-05T12:37:12.155Z,151.07
2023-05-05T12:38:12.144Z,149.06
2023-05-05T12:39:12.194Z,150.20
2023-05-05T12:40:12.492Z,150.56
2023-05-05T12:41:12.319Z,150.70